FZT YCFS-YCFS
Flight info
| Callsign | FZT |
|---|---|
| Flight time | 0h 18m |
| Altitude | 1500 |
| Route | VFR LAPS IN PATTERN |
| Aircraft | PA28/L-SDE2E3GHIJ1J3J4J5LM1ORWXYZ/LB1D1 |
Departure
| Time | 2026-04-27 06:43 |
|---|---|
| Airport | Coffs Harbour Airport (YCFS) |
Arrival
| Time | 2026-04-27 07:01 |
|---|---|
| Airport | Coffs Harbour Airport (YCFS) |
| Time | Latitude | Longitude | Altitude | Speed | Heading |
|---|---|---|---|---|---|
| 2026-04-27 06:34 | -30.32263 | 153.11673 | 17 ft | 0 kts | 341° |
| 2026-04-27 06:40 | -30.32262 | 153.11673 | 17 ft | 1 kts | 359° |
| 2026-04-27 06:40 | -30.32285 | 153.11681 | 17 ft | 9 kts | 176° |
| 2026-04-27 06:41 | -30.32340 | 153.11681 | 17 ft | 0 kts | 184° |
| 2026-04-27 06:41 | -30.32364 | 153.11688 | 26 ft | 5 kts | 140° |
| 2026-04-27 06:41 | -30.32383 | 153.11713 | 17 ft | 8 kts | 130° |
| 2026-04-27 06:41 | -30.32427 | 153.11770 | 17 ft | 11 kts | 130° |
| 2026-04-27 06:42 | -30.32487 | 153.11849 | 18 ft | 15 kts | 138° |
| 2026-04-27 06:42 | -30.32564 | 153.11914 | 18 ft | 14 kts | 220° |
| 2026-04-27 06:42 | -30.32754 | 153.11729 | 22 ft | 61 kts | 215° |
| 2026-04-27 06:42 | -30.33090 | 153.11419 | 251 ft | 59 kts | 208° |
| 2026-04-27 06:43 | -30.33469 | 153.11153 | 385 ft | 65 kts | 173° |
| 2026-04-27 06:43 | -30.33781 | 153.11526 | 577 ft | 65 kts | 124° |
| 2026-04-27 06:43 | -30.34066 | 153.11903 | 823 ft | 59 kts | 130° |
| 2026-04-27 06:43 | -30.34323 | 153.12323 | 1006 ft | 65 kts | 119° |
| 2026-04-27 06:44 | -30.34615 | 153.12734 | 1176 ft | 73 kts | 133° |
| 2026-04-27 06:44 | -30.34931 | 153.13214 | 1431 ft | 80 kts | 126° |
| 2026-04-27 06:44 | -30.35150 | 153.13838 | 1706 ft | 96 kts | 91° |
| 2026-04-27 06:44 | -30.34755 | 153.14427 | 2133 ft | 100 kts | 26° |
| 2026-04-27 06:45 | -30.34041 | 153.14755 | 2233 ft | 125 kts | 27° |
| 2026-04-27 06:45 | -30.33074 | 153.15183 | 2029 ft | 152 kts | 25° |
| 2026-04-27 06:45 | -30.32252 | 153.15831 | 2268 ft | 139 kts | 41° |
| 2026-04-27 06:45 | -30.31407 | 153.16523 | 2252 ft | 150 kts | 37° |
| 2026-04-27 06:46 | -30.30557 | 153.17122 | 2527 ft | 143 kts | 35° |
| 2026-04-27 06:46 | -30.29602 | 153.17734 | 2252 ft | 169 kts | 32° |
| 2026-04-27 06:46 | -30.28575 | 153.18357 | 2395 ft | 158 kts | 32° |
| 2026-04-27 06:46 | -30.27566 | 153.18928 | 2267 ft | 168 kts | 31° |
| 2026-04-27 06:47 | -30.26599 | 153.19625 | 2326 ft | 158 kts | 38° |
| 2026-04-27 06:47 | -30.25713 | 153.20316 | 2443 ft | 148 kts | 39° |
| 2026-04-27 06:47 | -30.24702 | 153.20356 | 2534 ft | 151 kts | 332° |
| 2026-04-27 06:47 | -30.24261 | 153.19338 | 2252 ft | 156 kts | 268° |
| 2026-04-27 06:48 | -30.24852 | 153.18346 | 1869 ft | 122 kts | 203° |
| 2026-04-27 06:48 | -30.25587 | 153.17868 | 2050 ft | 124 kts | 202° |
| 2026-04-27 06:48 | -30.26369 | 153.17422 | 1896 ft | 125 kts | 200° |
| 2026-04-27 06:48 | -30.27158 | 153.16982 | 1542 ft | 126 kts | 200° |
| 2026-04-27 06:49 | -30.27896 | 153.16473 | 1320 ft | 120 kts | 211° |
| 2026-04-27 06:49 | -30.28545 | 153.15901 | 1232 ft | 114 kts | 216° |
| 2026-04-27 06:49 | -30.29118 | 153.15306 | 1071 ft | 107 kts | 217° |
| 2026-04-27 06:49 | -30.29642 | 153.14768 | 929 ft | 95 kts | 215° |
| 2026-04-27 06:50 | -30.30185 | 153.14257 | 651 ft | 99 kts | 211° |
| 2026-04-27 06:50 | -30.30700 | 153.13783 | 515 ft | 93 kts | 217° |
| 2026-04-27 06:50 | -30.31186 | 153.13306 | 423 ft | 90 kts | 214° |
| 2026-04-27 06:50 | -30.31638 | 153.12829 | 262 ft | 84 kts | 217° |
| 2026-04-27 06:51 | -30.32077 | 153.12390 | 157 ft | 81 kts | 213° |
| 2026-04-27 06:51 | -30.32491 | 153.11983 | 35 ft | 73 kts | 216° |
| 2026-04-27 06:51 | -30.32817 | 153.11656 | 15 ft | 54 kts | 218° |
| 2026-04-27 06:51 | -30.33097 | 153.11397 | 46 ft | 60 kts | 208° |
| 2026-04-27 06:52 | -30.33406 | 153.11111 | 324 ft | 61 kts | 208° |
| 2026-04-27 06:52 | -30.33856 | 153.10901 | 587 ft | 57 kts | 146° |
| 2026-04-27 06:52 | -30.34120 | 153.11288 | 857 ft | 64 kts | 130° |
| 2026-04-27 06:52 | -30.34469 | 153.11817 | 974 ft | 89 kts | 126° |
| 2026-04-27 06:53 | -30.34731 | 153.12357 | 1431 ft | 84 kts | 116° |
| 2026-04-27 06:53 | -30.34722 | 153.12990 | 1755 ft | 95 kts | 58° |
| 2026-04-27 06:53 | -30.34257 | 153.13464 | 2029 ft | 104 kts | 37° |
| 2026-04-27 06:53 | -30.33563 | 153.13933 | 2125 ft | 128 kts | 32° |
| 2026-04-27 06:54 | -30.32738 | 153.14379 | 2408 ft | 126 kts | 27° |
| 2026-04-27 06:54 | -30.31824 | 153.14786 | 2203 ft | 158 kts | 24° |
| 2026-04-27 06:54 | -30.30773 | 153.15232 | 2273 ft | 155 kts | 24° |
| 2026-04-27 06:54 | -30.29793 | 153.15698 | 2424 ft | 152 kts | 28° |
| 2026-04-27 06:55 | -30.28826 | 153.16219 | 2569 ft | 153 kts | 29° |
| 2026-04-27 06:55 | -30.27861 | 153.16718 | 2760 ft | 151 kts | 28° |
| 2026-04-27 06:55 | -30.26931 | 153.17249 | 2864 ft | 148 kts | 33° |
| 2026-04-27 06:55 | -30.26058 | 153.17772 | 3063 ft | 134 kts | 32° |
| 2026-04-27 06:56 | -30.25211 | 153.18190 | 3145 ft | 139 kts | 16° |
| 2026-04-27 06:56 | -30.24247 | 153.17929 | 3047 ft | 154 kts | 326° |
| 2026-04-27 06:56 | -30.23463 | 153.17179 | 3169 ft | 144 kts | 337° |
| 2026-04-27 06:56 | -30.22462 | 153.17279 | 2932 ft | 151 kts | 37° |
| 2026-04-27 06:57 | -30.21958 | 153.18245 | 2544 ft | 142 kts | 92° |
| 2026-04-27 06:57 | -30.22496 | 153.19122 | 2112 ft | 137 kts | 150° |
| 2026-04-27 06:57 | -30.23382 | 153.19391 | 1927 ft | 127 kts | 174° |
| 2026-04-27 06:57 | -30.24263 | 153.19344 | 1814 ft | 126 kts | 183° |
| 2026-04-27 06:58 | -30.25124 | 153.19124 | 1620 ft | 128 kts | 192° |
| 2026-04-27 06:58 | -30.26389 | 153.17945 | 1319 ft | 109 kts | 220° |
| 2026-04-27 06:58 | -30.26879 | 153.17366 | 1398 ft | 98 kts | 213° |
| 2026-04-27 06:59 | -30.27445 | 153.16875 | 1309 ft | 105 kts | 208° |
| 2026-04-27 06:59 | -30.28032 | 153.16349 | 1206 ft | 106 kts | 214° |
| 2026-04-27 06:59 | -30.28593 | 153.15760 | 1088 ft | 111 kts | 216° |
| 2026-04-27 06:59 | -30.29156 | 153.15152 | 955 ft | 108 kts | 216° |
| 2026-04-27 07:00 | -30.29758 | 153.14623 | 783 ft | 108 kts | 210° |
| 2026-04-27 07:00 | -30.30343 | 153.14086 | 606 ft | 106 kts | 216° |
| 2026-04-27 07:00 | -30.30875 | 153.13584 | 431 ft | 95 kts | 215° |
| 2026-04-27 07:00 | -30.31360 | 153.13063 | 298 ft | 88 kts | 212° |
| 2026-04-27 07:01 | -30.31799 | 153.12689 | 182 ft | 83 kts | 220° |
| 2026-04-27 07:01 | -30.32183 | 153.12281 | 94 ft | 68 kts | 212° |
| 2026-04-27 07:01 | -30.32509 | 153.11957 | 23 ft | 55 kts | 213° |
| 2026-04-27 07:01 | -30.32762 | 153.11718 | 15 ft | 40 kts | 218° |
| 2026-04-27 07:02 | -30.32890 | 153.11592 | 15 ft | 33 kts | 227° |
| 2026-04-27 07:02 | -30.32989 | 153.11526 | 15 ft | 11 kts | 15° |
| 2026-04-27 07:02 | -30.32890 | 153.11603 | 15 ft | 19 kts | 43° |
| 2026-04-27 07:02 | -30.32829 | 153.11664 | 15 ft | 15 kts | 40° |
| 2026-04-27 07:03 | -30.32729 | 153.11754 | 16 ft | 23 kts | 33° |
| 2026-04-27 07:03 | -30.32574 | 153.11902 | 18 ft | 21 kts | 32° |
| 2026-04-27 07:03 | -30.32500 | 153.11869 | 18 ft | 19 kts | 311° |
| 2026-04-27 07:03 | -30.32411 | 153.11750 | 17 ft | 20 kts | 310° |
| 2026-04-27 07:04 | -30.32334 | 153.11642 | 17 ft | 13 kts | 334° |
| 2026-04-27 07:04 | -30.32302 | 153.11629 | 17 ft | 1 kts | 341° |
| 2026-04-27 07:04 | -30.32300 | 153.11629 | 17 ft | 0 kts | 340° |